createdAt,value
2023-01-11T00:01:23.906Z,4.90
2023-01-11T00:04:09.178Z,5.00
2023-01-11T00:06:54.547Z,5.00
2023-01-11T00:09:39.823Z,4.80
2023-01-11T00:12:25.065Z,4.90
2023-01-11T00:15:11.565Z,4.90
2023-01-11T00:17:57.639Z,5.00
2023-01-11T00:20:42.712Z,4.90
2023-01-11T00:23:27.871Z,5.00
2023-01-11T00:26:13.670Z,5.00
2023-01-11T00:28:58.851Z,5.00
2023-01-11T00:31:44.145Z,5.00
2023-01-11T00:34:29.581Z,4.90
2023-01-11T00:37:14.904Z,4.80
2023-01-11T00:40:00.143Z,4.80
2023-01-11T00:43:04.083Z,4.90
2023-01-11T00:46:18.177Z,4.90
2023-01-11T00:49:03.511Z,4.80
2023-01-11T00:51:48.770Z,4.70
2023-01-11T00:54:35.268Z,4.70
2023-01-11T00:57:20.921Z,4.60
2023-01-11T01:00:06.856Z,4.70
2023-01-11T01:02:52.222Z,4.70
2023-01-11T01:05:38.738Z,4.80
2023-01-11T01:08:24.103Z,4.90
2023-01-11T01:11:09.658Z,4.90
2023-01-11T01:14:13.611Z,4.80
2023-01-11T01:17:07.423Z,4.90
2023-01-11T01:19:52.597Z,4.90
2023-01-11T01:22:38.060Z,4.90
2023-01-11T01:25:23.724Z,4.90
2023-01-11T01:28:08.834Z,4.80
2023-01-11T01:30:54.185Z,4.70
2023-01-11T01:33:39.908Z,4.70
2023-01-11T01:36:25.172Z,4.60
2023-01-11T01:39:12.843Z,4.60
2023-01-11T01:41:58.967Z,4.60
2023-01-11T01:45:03.639Z,4.60
2023-01-11T01:47:59.190Z,4.60
2023-01-11T01:50:48.875Z,4.70
2023-01-11T01:53:45.208Z,4.60
2023-01-11T01:56:34.517Z,4.70
2023-01-11T01:59:21.825Z,4.60
2023-01-11T02:02:07.135Z,4.50
2023-01-11T02:04:56.273Z,4.40
2023-01-11T02:07:44.377Z,4.50
2023-01-11T02:10:30.003Z,4.50
2023-01-11T02:13:15.523Z,4.40
2023-01-11T02:16:09.901Z,4.40
2023-01-11T02:18:56.551Z,4.60
2023-01-11T02:22:00.732Z,4.60
2023-01-11T02:24:51.916Z,4.60
2023-01-11T02:27:47.364Z,4.70
2023-01-11T02:30:57.781Z,4.60
2023-01-11T02:33:47.742Z,4.50
2023-01-11T02:36:46.042Z,4.60
2023-01-11T02:39:37.295Z,4.60
2023-01-11T02:42:57.458Z,4.60
2023-01-11T02:46:13.049Z,4.60
2023-01-11T02:49:16.371Z,4.60
2023-01-11T02:52:08.545Z,4.50
2023-01-11T02:54:57.572Z,4.50
2023-01-11T02:57:44.734Z,4.60
2023-01-11T03:00:30.421Z,4.60
2023-01-11T03:03:19.547Z,4.50
2023-01-11T03:06:21.150Z,4.40
2023-01-11T03:09:20.211Z,4.50
2023-01-11T03:12:50.938Z,4.50
2023-01-11T03:16:13.842Z,4.60
2023-01-11T03:19:36.593Z,4.60
2023-01-11T03:22:50.436Z,4.50
2023-01-11T03:26:17.595Z,4.70
2023-01-11T03:29:19.696Z,4.60
2023-01-11T03:32:14.213Z,4.50
2023-01-11T03:35:15.766Z,4.40
2023-01-11T03:38:13.009Z,4.50
2023-01-11T03:41:05.411Z,4.60
2023-01-11T03:43:54.232Z,4.40
2023-01-11T03:47:04.072Z,4.40
2023-01-11T03:50:06.879Z,4.40
2023-01-11T03:52:54.771Z,4.30
2023-01-11T03:55:44.392Z,4.40
2023-01-11T03:58:29.875Z,4.40
2023-01-11T04:01:15.536Z,4.60
2023-01-11T04:04:00.631Z,4.60
2023-01-11T04:06:46.135Z,4.60
2023-01-11T04:09:31.537Z,4.50
2023-01-11T04:12:17.067Z,4.60
2023-01-11T04:15:03.207Z,4.60
2023-01-11T04:17:48.313Z,4.70
2023-01-11T04:20:35.991Z,4.80
2023-01-11T04:23:21.285Z,4.80
2023-01-11T04:26:06.961Z,4.80
2023-01-11T04:28:54.195Z,4.80
2023-01-11T04:31:39.808Z,4.90
2023-01-11T04:34:25.332Z,4.80
2023-01-11T04:37:11.954Z,4.80
2023-01-11T04:39:57.040Z,4.90
2023-01-11T04:42:42.477Z,5.00
2023-01-11T04:45:29.333Z,5.00
2023-01-11T04:48:14.581Z,4.90
2023-01-11T04:51:00.016Z,5.00
2023-01-11T04:53:48.345Z,5.00
2023-01-11T04:56:33.700Z,4.90
2023-01-11T04:59:18.751Z,5.00
2023-01-11T05:02:04.262Z,4.90
2023-01-11T05:04:49.516Z,4.90
2023-01-11T05:07:34.958Z,4.80
2023-01-11T05:10:21.114Z,4.90
2023-01-11T05:13:06.691Z,4.90
2023-01-11T05:15:52.008Z,5.00
2023-01-11T05:18:45.876Z,5.00
2023-01-11T05:21:34.946Z,5.00
2023-01-11T05:24:20.367Z,5.10
2023-01-11T05:27:06.011Z,5.00
2023-01-11T05:29:51.181Z,5.00
2023-01-11T05:32:36.674Z,5.10
2023-01-11T05:35:21.942Z,5.00
2023-01-11T05:38:07.483Z,5.10
2023-01-11T05:41:00.625Z,5.00
2023-01-11T05:44:06.401Z,5.10
2023-01-11T05:46:51.727Z,5.10
2023-01-11T05:49:37.161Z,5.00
2023-01-11T05:52:22.643Z,5.00
2023-01-11T05:55:08.439Z,5.00
2023-01-11T05:57:53.999Z,5.00
2023-01-11T06:00:39.199Z,5.00
2023-01-11T06:03:26.129Z,5.00
2023-01-11T06:06:11.949Z,5.10
2023-01-11T06:08:57.035Z,5.10
2023-01-11T06:11:42.412Z,5.10
2023-01-11T06:14:27.773Z,5.20
2023-01-11T06:17:13.233Z,5.20
2023-01-11T06:19:58.830Z,5.30
2023-01-11T06:22:44.152Z,5.20
2023-01-11T06:25:30.390Z,5.20
2023-01-11T06:28:15.488Z,5.20
2023-01-11T06:31:01.451Z,5.20
2023-01-11T06:33:47.501Z,5.20
2023-01-11T06:36:32.550Z,5.20
2023-01-11T06:39:18.718Z,5.30
2023-01-11T06:42:03.759Z,5.30
2023-01-11T06:44:49.103Z,5.40
2023-01-11T06:47:34.481Z,5.40
2023-01-11T06:50:20.884Z,5.40
2023-01-11T06:53:06.736Z,5.30
2023-01-11T06:55:52.958Z,5.30
2023-01-11T06:58:38.476Z,5.40
2023-01-11T07:01:26.037Z,5.50
2023-01-11T07:04:11.268Z,5.60
2023-01-11T07:06:56.810Z,5.50
2023-01-11T07:09:42.387Z,5.50
2023-01-11T07:12:27.690Z,5.50
2023-01-11T07:15:13.195Z,5.50
2023-01-11T07:17:59.798Z,5.70
2023-01-11T07:20:44.889Z,5.80
2023-01-11T07:23:30.347Z,5.70
2023-01-11T07:26:17.278Z,5.70
2023-01-11T07:29:02.821Z,5.70
2023-01-11T07:31:48.281Z,5.70
2023-01-11T07:34:34.020Z,5.70
2023-01-11T07:37:28.076Z,5.70
2023-01-11T07:40:16.323Z,5.80
2023-01-11T07:43:18.249Z,5.80
2023-01-11T07:46:03.645Z,5.80
2023-01-11T07:48:49.007Z,5.80
2023-01-11T07:51:34.384Z,5.80
2023-01-11T07:54:19.932Z,5.80
2023-01-11T07:57:06.154Z,5.70
2023-01-11T07:59:51.368Z,5.70
2023-01-11T08:02:36.929Z,5.80
2023-01-11T08:05:22.277Z,5.80
2023-01-11T08:08:08.227Z,5.80
2023-01-11T08:11:12.132Z,6.00
2023-01-11T08:14:15.928Z,5.90
2023-01-11T08:17:01.349Z,6.00
2023-01-11T08:19:46.933Z,6.00
2023-01-11T08:22:32.359Z,6.00
2023-01-11T08:25:17.935Z,6.00
2023-01-11T08:28:05.322Z,5.90
2023-01-11T08:30:50.563Z,5.90
2023-01-11T08:33:35.924Z,5.90
2023-01-11T08:36:21.184Z,5.90
2023-01-11T08:39:06.724Z,5.90
2023-01-11T08:41:51.873Z,5.90
2023-01-11T08:44:37.326Z,5.80
2023-01-11T08:47:23.161Z,5.70
2023-01-11T08:50:09.604Z,5.70
2023-01-11T08:52:54.722Z,5.70
2023-01-11T08:55:41.698Z,5.70
2023-01-11T08:58:27.046Z,5.70
2023-01-11T09:01:12.468Z,5.70
2023-01-11T09:03:57.559Z,5.70
2023-01-11T09:06:42.981Z,5.60
2023-01-11T09:09:28.293Z,5.70
2023-01-11T09:12:14.484Z,5.70
2023-01-11T09:14:59.798Z,5.70
2023-01-11T09:17:47.439Z,5.70
2023-01-11T09:20:32.784Z,5.80
2023-01-11T09:23:17.950Z,5.70
2023-01-11T09:26:03.279Z,5.80
2023-01-11T09:28:48.862Z,5.80
2023-01-11T09:31:34.027Z,5.80
2023-01-11T09:34:20.904Z,5.70
2023-01-11T09:37:07.006Z,5.70
2023-01-11T09:39:52.589Z,5.70
2023-01-11T09:42:43.028Z,5.70
2023-01-11T09:45:31.065Z,5.70
2023-01-11T09:48:28.420Z,5.70
2023-01-11T09:51:16.331Z,5.70
2023-01-11T09:54:05.853Z,5.70
2023-01-11T09:57:18.490Z,5.70
2023-01-11T10:00:23.949Z,5.80
2023-01-11T10:03:19.465Z,5.90
2023-01-11T10:06:10.580Z,5.90
2023-01-11T10:18:28.731Z,6.00
2023-01-11T10:19:37.623Z,6.00
2023-01-11T10:22:36.405Z,5.90
2023-01-11T10:25:30.326Z,6.00
2023-01-11T10:28:43.038Z,6.00
2023-01-11T10:31:47.741Z,6.10
2023-01-11T10:35:00.604Z,6.20
2023-01-11T10:38:07.821Z,6.20
2023-01-11T10:41:03.293Z,6.20
2023-01-11T10:44:04.931Z,6.30
2023-01-11T10:46:53.726Z,6.30
2023-01-11T10:49:43.712Z,6.30
2023-01-11T10:52:54.227Z,6.30
2023-01-11T10:56:02.047Z,6.30
2023-01-11T10:59:15.812Z,6.40
2023-01-11T11:02:43.369Z,6.50
2023-01-11T11:05:46.752Z,6.50
2023-01-11T11:08:44.505Z,6.60
2023-01-11T11:11:38.258Z,6.50
2023-01-11T11:14:23.614Z,6.50
2023-01-11T11:17:16.617Z,6.60
2023-01-11T11:20:10.556Z,6.60
2023-01-11T11:22:58.835Z,6.60
2023-01-11T11:25:48.948Z,6.70
2023-01-11T11:28:34.067Z,6.70
2023-01-11T11:31:19.048Z,6.80
2023-01-11T11:34:08.180Z,6.80
2023-01-11T11:36:53.841Z,6.90
2023-01-11T11:39:38.786Z,6.90
2023-01-11T11:42:24.468Z,6.90
2023-01-11T11:45:09.642Z,6.90
2023-01-11T11:48:02.261Z,7.00
2023-01-11T11:50:48.303Z,7.10
2023-01-11T11:53:38.814Z,7.10
2023-01-11T11:56:31.331Z,7.10
2023-01-11T11:59:20.493Z,7.10
2023-01-11T12:02:11.213Z,7.10
2023-01-11T12:04:58.092Z,7.20
2023-01-11T12:07:54.296Z,7.20
2023-01-11T12:10:47.060Z,7.20
2023-01-11T12:13:33.606Z,7.20
2023-01-11T12:16:20.769Z,7.30
2023-01-11T12:19:24.878Z,7.20
2023-01-11T12:22:11.556Z,7.20
2023-01-11T12:25:02.948Z,7.30
2023-01-11T12:28:00.366Z,7.20
2023-01-11T12:30:45.556Z,7.30
2023-01-11T12:33:34.243Z,7.40
2023-01-11T12:36:22.374Z,7.50
2023-01-11T12:39:26.513Z,7.50
2023-01-11T12:42:29.990Z,7.50
2023-01-11T12:45:28.410Z,7.60
2023-01-11T12:48:25.539Z,7.60
2023-01-11T12:51:13.655Z,7.60
2023-01-11T12:54:08.099Z,7.70
2023-01-11T12:57:02.662Z,7.70
2023-01-11T12:59:54.698Z,7.70
2023-01-11T13:02:46.472Z,7.70
2023-01-11T13:05:35.657Z,7.80
2023-01-11T13:08:21.041Z,7.80
2023-01-11T13:11:34.874Z,7.80
2023-01-11T13:14:35.275Z,7.90
2023-01-11T13:17:39.088Z,7.90
2023-01-11T13:20:48.629Z,7.80
2023-01-11T13:23:47.318Z,7.90
2023-01-11T13:26:36.758Z,7.90
2023-01-11T13:29:22.217Z,7.90
2023-01-11T13:32:12.234Z,8.00
2023-01-11T13:34:59.808Z,8.10
2023-01-11T13:37:53.356Z,8.00
2023-01-11T13:40:41.772Z,8.10
2023-01-11T13:43:36.282Z,8.20
2023-01-11T13:46:32.620Z,8.20
2023-01-11T13:49:30.542Z,8.20
2023-01-11T13:52:36.016Z,8.20
2023-01-11T13:55:26.592Z,8.20
2023-01-11T13:58:15.276Z,8.20
2023-01-11T14:01:04.162Z,8.30
2023-01-11T14:03:57.257Z,8.30
2023-01-11T14:06:47.379Z,8.40
2023-01-11T14:09:42.694Z,8.40
2023-01-11T14:12:28.144Z,8.50
2023-01-11T14:15:20.208Z,8.60
2023-01-11T14:18:09.223Z,8.60
2023-01-11T14:21:02.309Z,8.60
2023-01-11T14:23:51.978Z,8.60
2023-01-11T14:26:40.498Z,8.60
2023-01-11T14:29:44.418Z,8.70
2023-01-11T14:32:49.431Z,8.80
2023-01-11T14:35:37.400Z,8.80
2023-01-11T14:38:40.500Z,8.80
2023-01-11T14:41:25.515Z,8.80
2023-01-11T14:44:16.632Z,8.80
2023-01-11T14:47:16.847Z,8.80
2023-01-11T14:50:20.765Z,8.90
2023-01-11T14:53:06.582Z,8.90
2023-01-11T14:55:51.895Z,8.90
2023-01-11T14:58:36.913Z,8.90
2023-01-11T15:01:21.944Z,8.80
2023-01-11T15:04:19.597Z,8.80
2023-01-11T15:07:43.603Z,8.80
2023-01-11T15:10:28.516Z,8.90
2023-01-11T15:13:16.726Z,8.90
2023-01-11T15:16:25.519Z,8.90
2023-01-11T15:19:12.544Z,8.90
2023-01-11T15:21:59.675Z,8.80
2023-01-11T15:24:54.729Z,8.90
2023-01-11T15:27:39.799Z,8.90
2023-01-11T15:30:30.972Z,8.80
2023-01-11T15:33:19.281Z,8.80
2023-01-11T15:36:06.721Z,8.90
2023-01-11T15:39:03.132Z,8.80
2023-01-11T15:42:04.751Z,8.90
2023-01-11T15:45:12.911Z,9.00
2023-01-11T15:48:16.809Z,9.00
2023-01-11T15:51:07.804Z,9.00
2023-01-11T15:54:01.060Z,9.00
2023-01-11T15:57:05.278Z,9.00
2023-01-11T16:00:10.015Z,9.00
2023-01-11T16:03:04.505Z,9.10
2023-01-11T16:06:04.081Z,9.10
2023-01-11T16:09:02.201Z,9.10
2023-01-11T16:12:07.170Z,9.10
2023-01-11T16:15:11.125Z,9.10
2023-01-11T16:17:58.339Z,9.10
2023-01-11T16:20:44.926Z,9.20
2023-01-11T16:23:31.734Z,9.20
2023-01-11T16:26:18.177Z,9.20
2023-01-11T16:29:08.389Z,9.20
2023-01-11T16:31:59.376Z,9.20
2023-01-11T16:34:46.877Z,9.20
2023-01-11T16:37:37.743Z,9.20
2023-01-11T16:40:35.898Z,9.20
2023-01-11T16:43:23.416Z,9.10
2023-01-11T16:46:11.405Z,9.10
2023-01-11T16:49:08.792Z,9.10
2023-01-11T16:51:53.876Z,9.10
2023-01-11T16:54:38.958Z,9.00
2023-01-11T16:57:31.907Z,9.00
2023-01-11T17:00:22.286Z,9.00
2023-01-11T17:03:22.343Z,9.10
2023-01-11T17:06:07.663Z,9.10
2023-01-11T17:08:56.763Z,9.20
2023-01-11T17:11:46.206Z,9.20
2023-01-11T17:14:50.490Z,9.20
2023-01-11T17:17:36.864Z,9.30
2023-01-11T17:20:24.846Z,9.10
2023-01-11T17:23:14.923Z,9.20
2023-01-11T17:26:01.247Z,9.20
2023-01-11T17:28:47.781Z,9.10
2023-01-11T17:31:35.946Z,9.20
2023-01-11T17:34:27.018Z,9.10
2023-01-11T17:37:16.686Z,9.20
2023-01-11T17:40:02.417Z,9.20
2023-01-11T17:43:06.599Z,9.20
2023-01-11T17:45:58.576Z,9.10
2023-01-11T17:48:54.860Z,9.10
2023-01-11T17:51:41.122Z,9.10
2023-01-11T17:54:26.401Z,9.10
2023-01-11T17:57:11.841Z,9.10
2023-01-11T18:00:15.200Z,9.10
2023-01-11T18:03:01.821Z,9.10
2023-01-11T18:05:47.130Z,9.00
2023-01-11T18:08:32.309Z,9.00
2023-01-11T18:11:31.354Z,9.00
2023-01-11T18:14:25.118Z,9.00
2023-01-11T18:17:26.015Z,8.90
2023-01-11T18:20:14.444Z,8.90
2023-01-11T18:23:05.078Z,8.90
2023-01-11T18:26:10.611Z,8.80
2023-01-11T18:28:56.049Z,8.80
2023-01-11T18:31:41.260Z,8.80
2023-01-11T18:34:26.581Z,8.80
2023-01-11T18:37:11.821Z,8.80
2023-01-11T18:39:57.968Z,8.80
2023-01-11T18:42:45.392Z,8.80
2023-01-11T18:45:30.604Z,8.80
2023-01-11T18:48:15.627Z,8.80
2023-01-11T18:51:00.793Z,8.80
2023-01-11T18:53:45.778Z,9.00
2023-01-11T18:56:30.858Z,9.10
2023-01-11T18:59:15.971Z,9.10
2023-01-11T19:02:16.062Z,9.00
2023-01-11T19:05:02.339Z,9.00
2023-01-11T19:07:47.773Z,8.90
2023-01-11T19:10:33.116Z,8.90
2023-01-11T19:13:19.403Z,9.00
2023-01-11T19:16:05.006Z,9.00
2023-01-11T19:18:53.363Z,9.00
2023-01-11T19:21:38.564Z,9.00
2023-01-11T19:24:23.597Z,9.00
2023-01-11T19:27:08.685Z,9.00
2023-01-11T19:29:53.942Z,9.00
2023-01-11T19:32:39.379Z,9.00
2023-01-11T19:35:24.504Z,8.90
2023-01-11T19:38:09.999Z,8.90
2023-01-11T19:40:55.129Z,8.90
2023-01-11T19:43:44.804Z,8.80
2023-01-11T19:46:32.006Z,8.80
2023-01-11T19:49:17.468Z,8.80
2023-01-11T19:52:02.675Z,8.80
2023-01-11T19:54:48.076Z,8.80
2023-01-11T19:57:33.161Z,8.80
2023-01-11T20:00:20.398Z,8.80
2023-01-11T20:03:05.875Z,8.70
2023-01-11T20:05:51.087Z,8.70
2023-01-11T20:08:38.478Z,8.70
2023-01-11T20:11:23.982Z,8.70
2023-01-11T20:14:09.042Z,8.70
2023-01-11T20:16:54.172Z,8.60
2023-01-11T20:19:39.291Z,8.70
2023-01-11T20:22:24.700Z,8.60
2023-01-11T20:25:12.373Z,8.60
2023-01-11T20:27:57.619Z,8.60
2023-01-11T20:30:42.734Z,8.70
2023-01-11T20:33:27.598Z,8.70
2023-01-11T20:36:17.045Z,8.70
2023-01-11T20:39:02.839Z,8.70
2023-01-11T20:41:48.391Z,8.70
2023-01-11T20:44:33.505Z,8.80
2023-01-11T20:47:18.769Z,8.70
2023-01-11T20:50:04.150Z,8.70
2023-01-11T20:52:49.541Z,8.80
2023-01-11T20:55:36.595Z,8.80
2023-01-11T20:58:22.150Z,8.80
2023-01-11T21:01:08.368Z,8.80
2023-01-11T21:03:54.181Z,8.90
2023-01-11T21:06:41.156Z,8.80
2023-01-11T21:09:26.182Z,8.80
2023-01-11T21:12:11.141Z,8.80
2023-01-11T21:14:56.249Z,8.70
2023-01-11T21:17:41.356Z,8.60
2023-01-11T21:20:26.430Z,8.50
2023-01-11T21:23:15.144Z,8.40
2023-01-11T21:26:00.166Z,8.40
2023-01-11T21:28:49.444Z,8.30
2023-01-11T21:31:35.516Z,8.30
2023-01-11T21:34:20.836Z,8.30
2023-01-11T21:37:05.916Z,8.20
2023-01-11T21:39:51.748Z,8.10
2023-01-11T21:42:37.216Z,8.10
2023-01-11T21:45:22.593Z,8.10
2023-01-11T21:48:07.976Z,8.10
2023-01-11T21:50:52.849Z,8.10
2023-01-11T21:53:38.165Z,8.10
2023-01-11T21:56:23.519Z,8.00
2023-01-11T21:59:08.750Z,8.00
2023-01-11T22:01:54.089Z,8.00
2023-01-11T22:04:39.245Z,8.00
2023-01-11T22:07:27.070Z,8.00
2023-01-11T22:10:12.456Z,8.00
2023-01-11T22:12:57.564Z,8.10
2023-01-11T22:15:42.596Z,8.00
2023-01-11T22:18:28.223Z,8.00
2023-01-11T22:21:14.877Z,8.10
2023-01-11T22:24:00.193Z,8.10
2023-01-11T22:26:45.279Z,8.20
2023-01-11T22:29:31.007Z,8.20
2023-01-11T22:32:15.991Z,8.10
2023-01-11T22:35:01.072Z,8.20
2023-01-11T22:37:48.353Z,8.10
2023-01-11T22:40:33.495Z,8.10
2023-01-11T22:43:18.633Z,8.00
2023-01-11T22:46:03.759Z,8.10
2023-01-11T22:48:49.261Z,8.00
2023-01-11T22:51:35.782Z,8.10
2023-01-11T22:54:21.062Z,8.00
2023-01-11T22:57:06.088Z,8.00
2023-01-11T22:59:51.160Z,8.00
2023-01-11T23:02:36.287Z,8.00
2023-01-11T23:05:21.203Z,8.00
2023-01-11T23:08:06.558Z,7.90
2023-01-11T23:10:51.730Z,8.00
2023-01-11T23:13:58.848Z,7.90
2023-01-11T23:16:44.951Z,7.90
2023-01-11T23:19:32.016Z,8.00
2023-01-11T23:22:17.230Z,8.00
2023-01-11T23:25:03.427Z,8.00
2023-01-11T23:27:48.471Z,7.90
2023-01-11T23:30:33.610Z,8.00
2023-01-11T23:33:18.700Z,7.90
2023-01-11T23:36:04.500Z,8.00
2023-01-11T23:38:50.769Z,8.00
2023-01-11T23:41:54.940Z,7.90
2023-01-11T23:44:40.140Z,7.90
2023-01-11T23:47:25.584Z,7.80
2023-01-11T23:50:10.540Z,7.90
2023-01-11T23:52:55.493Z,7.90
2023-01-11T23:55:42.204Z,7.90
2023-01-11T23:58:28.224Z,8.00
